sensor_id;sensor_type;location;lat;lon;timestamp;P1;durP1;ratioP1;P2;durP2;ratioP2
24644;SDS011;12780;45.502;9.146;2023-02-22T00:00:14;64.13;;;32.38;;
24644;SDS011;12780;45.502;9.146;2023-02-22T00:03:00;66.65;;;32.00;;
24644;SDS011;12780;45.502;9.146;2023-02-22T00:05:26;68.18;;;32.72;;
24644;SDS011;12780;45.502;9.146;2023-02-22T00:07:55;63.75;;;32.97;;
24644;SDS011;12780;45.502;9.146;2023-02-22T00:10:21;61.70;;;31.83;;
24644;SDS011;12780;45.502;9.146;2023-02-22T00:12:48;60.90;;;31.15;;
24644;SDS011;12780;45.502;9.146;2023-02-22T00:15:19;61.55;;;31.50;;
24644;SDS011;12780;45.502;9.146;2023-02-22T00:17:46;62.88;;;32.03;;
24644;SDS011;12780;45.502;9.146;2023-02-22T00:20:13;61.83;;;29.95;;
24644;SDS011;12780;45.502;9.146;2023-02-22T00:22:41;61.35;;;29.40;;
24644;SDS011;12780;45.502;9.146;2023-02-22T00:25:10;55.22;;;28.30;;
24644;SDS011;12780;45.502;9.146;2023-02-22T00:27:37;56.67;;;28.58;;
24644;SDS011;12780;45.502;9.146;2023-02-22T00:30:03;53.63;;;28.85;;
24644;SDS011;12780;45.502;9.146;2023-02-22T00:32:30;59.65;;;29.17;;
24644;SDS011;12780;45.502;9.146;2023-02-22T00:34:56;52.05;;;27.88;;
24644;SDS011;12780;45.502;9.146;2023-02-22T00:37:21;55.10;;;28.05;;
24644;SDS011;12780;45.502;9.146;2023-02-22T00:39:47;53.63;;;26.88;;
24644;SDS011;12780;45.502;9.146;2023-02-22T00:42:15;48.60;;;25.63;;
24644;SDS011;12780;45.502;9.146;2023-02-22T00:44:42;54.55;;;26.40;;
24644;SDS011;12780;45.502;9.146;2023-02-22T00:47:08;57.58;;;26.58;;
24644;SDS011;12780;45.502;9.146;2023-02-22T00:49:34;49.67;;;25.48;;
24644;SDS011;12780;45.502;9.146;2023-02-22T00:52:00;48.10;;;24.98;;
24644;SDS011;12780;45.502;9.146;2023-02-22T00:54:25;48.65;;;23.98;;
24644;SDS011;12780;45.502;9.146;2023-02-22T00:56:51;52.53;;;26.48;;
24644;SDS011;12780;45.502;9.146;2023-02-22T00:59:17;52.72;;;25.88;;
24644;SDS011;12780;45.502;9.146;2023-02-22T01:01:43;48.38;;;25.90;;
24644;SDS011;12780;45.502;9.146;2023-02-22T01:04:08;50.78;;;24.80;;
24644;SDS011;12780;45.502;9.146;2023-02-22T01:06:34;49.40;;;24.70;;
24644;SDS011;12780;45.502;9.146;2023-02-22T01:09:00;42.03;;;23.17;;
24644;SDS011;12780;45.502;9.146;2023-02-22T01:11:26;44.40;;;24.85;;
24644;SDS011;12780;45.502;9.146;2023-02-22T01:13:53;53.78;;;25.80;;
24644;SDS011;12780;45.502;9.146;2023-02-22T01:16:19;54.95;;;25.25;;
24644;SDS011;12780;45.502;9.146;2023-02-22T01:18:45;51.13;;;24.63;;
24644;SDS011;12780;45.502;9.146;2023-02-22T01:21:10;49.17;;;23.85;;
24644;SDS011;12780;45.502;9.146;2023-02-22T01:23:36;48.55;;;23.88;;
24644;SDS011;12780;45.502;9.146;2023-02-22T01:26:02;47.03;;;23.20;;
24644;SDS011;12780;45.502;9.146;2023-02-22T01:28:30;46.13;;;22.02;;
24644;SDS011;12780;45.502;9.146;2023-02-22T01:30:56;49.10;;;23.13;;
24644;SDS011;12780;45.502;9.146;2023-02-22T01:33:21;37.35;;;20.55;;
24644;SDS011;12780;45.502;9.146;2023-02-22T01:35:47;36.25;;;19.38;;
24644;SDS011;12780;45.502;9.146;2023-02-22T01:38:15;44.92;;;23.17;;
24644;SDS011;12780;45.502;9.146;2023-02-22T01:40:42;41.67;;;22.58;;
24644;SDS011;12780;45.502;9.146;2023-02-22T01:43:22;48.92;;;24.05;;
24644;SDS011;12780;45.502;9.146;2023-02-22T01:45:54;47.30;;;24.23;;
24644;SDS011;12780;45.502;9.146;2023-02-22T01:48:29;46.50;;;21.88;;
24644;SDS011;12780;45.502;9.146;2023-02-22T01:53:46;52.40;;;22.80;;
24644;SDS011;12780;45.502;9.146;2023-02-22T01:56:24;51.80;;;24.92;;
24644;SDS011;12780;45.502;9.146;2023-02-22T01:58:53;47.78;;;24.23;;
24644;SDS011;12780;45.502;9.146;2023-02-22T02:01:23;44.63;;;24.02;;
24644;SDS011;12780;45.502;9.146;2023-02-22T02:03:49;48.47;;;24.42;;
24644;SDS011;12780;45.502;9.146;2023-02-22T02:06:18;49.05;;;23.98;;
24644;SDS011;12780;45.502;9.146;2023-02-22T02:11:37;44.28;;;23.40;;
24644;SDS011;12780;45.502;9.146;2023-02-22T02:14:05;43.45;;;22.98;;
24644;SDS011;12780;45.502;9.146;2023-02-22T02:16:36;47.45;;;22.58;;
24644;SDS011;12780;45.502;9.146;2023-02-22T02:19:17;47.10;;;22.85;;
24644;SDS011;12780;45.502;9.146;2023-02-22T02:36:21;41.72;;;22.05;;
24644;SDS011;12780;45.502;9.146;2023-02-22T02:39:04;47.17;;;22.27;;
24644;SDS011;12780;45.502;9.146;2023-02-22T02:41:40;44.08;;;23.52;;
24644;SDS011;12780;45.502;9.146;2023-02-22T02:44:14;44.50;;;23.77;;
24644;SDS011;12780;45.502;9.146;2023-02-22T02:46:49;52.33;;;28.05;;
24644;SDS011;12780;45.502;9.146;2023-02-22T02:49:24;64.75;;;31.33;;
24644;SDS011;12780;45.502;9.146;2023-02-22T02:52:11;70.03;;;36.00;;
24644;SDS011;12780;45.502;9.146;2023-02-22T02:54:39;79.13;;;38.90;;
24644;SDS011;12780;45.502;9.146;2023-02-22T02:57:06;77.72;;;36.83;;
24644;SDS011;12780;45.502;9.146;2023-02-22T02:59:34;84.68;;;39.65;;
24644;SDS011;12780;45.502;9.146;2023-02-22T03:18:53;112.38;;;51.17;;
24644;SDS011;12780;45.502;9.146;2023-02-22T03:26:52;121.30;;;55.03;;
24644;SDS011;12780;45.502;9.146;2023-02-22T03:29:21;130.48;;;57.33;;
24644;SDS011;12780;45.502;9.146;2023-02-22T03:31:52;140.82;;;58.85;;
24644;SDS011;12780;45.502;9.146;2023-02-22T03:34:25;143.13;;;61.92;;
24644;SDS011;12780;45.502;9.146;2023-02-22T03:36:57;143.93;;;61.67;;
24644;SDS011;12780;45.502;9.146;2023-02-22T03:39:32;143.10;;;61.17;;
24644;SDS011;12780;45.502;9.146;2023-02-22T03:42:06;154.68;;;63.92;;
24644;SDS011;12780;45.502;9.146;2023-02-22T03:44:37;151.95;;;63.67;;
24644;SDS011;12780;45.502;9.146;2023-02-22T03:47:05;142.93;;;62.38;;
24644;SDS011;12780;45.502;9.146;2023-02-22T03:49:43;143.15;;;64.55;;
24644;SDS011;12780;45.502;9.146;2023-02-22T03:52:20;147.32;;;65.28;;
24644;SDS011;12780;45.502;9.146;2023-02-22T03:54:49;155.90;;;67.53;;
24644;SDS011;12780;45.502;9.146;2023-02-22T03:57:30;149.65;;;66.55;;
24644;SDS011;12780;45.502;9.146;2023-02-22T03:59:58;159.63;;;68.18;;
24644;SDS011;12780;45.502;9.146;2023-02-22T04:02:24;165.13;;;72.57;;
24644;SDS011;12780;45.502;9.146;2023-02-22T04:04:50;166.13;;;74.00;;
24644;SDS011;12780;45.502;9.146;2023-02-22T04:07:16;177.95;;;77.43;;
24644;SDS011;12780;45.502;9.146;2023-02-22T04:09:41;181.88;;;74.97;;
24644;SDS011;12780;45.502;9.146;2023-02-22T04:12:07;174.98;;;75.55;;
24644;SDS011;12780;45.502;9.146;2023-02-22T04:14:33;173.00;;;78.93;;
24644;SDS011;12780;45.502;9.146;2023-02-22T04:16:59;194.05;;;78.63;;
24644;SDS011;12780;45.502;9.146;2023-02-22T04:19:24;187.02;;;79.00;;
24644;SDS011;12780;45.502;9.146;2023-02-22T04:21:50;194.40;;;81.43;;
24644;SDS011;12780;45.502;9.146;2023-02-22T04:24:15;191.55;;;78.40;;
24644;SDS011;12780;45.502;9.146;2023-02-22T04:26:41;184.52;;;79.28;;
24644;SDS011;12780;45.502;9.146;2023-02-22T04:29:07;183.73;;;78.22;;
24644;SDS011;12780;45.502;9.146;2023-02-22T04:31:32;193.60;;;84.28;;
24644;SDS011;12780;45.502;9.146;2023-02-22T04:33:58;203.95;;;84.15;;
24644;SDS011;12780;45.502;9.146;2023-02-22T04:36:24;199.70;;;83.63;;
24644;SDS011;12780;45.502;9.146;2023-02-22T04:38:51;191.50;;;81.65;;
24644;SDS011;12780;45.502;9.146;2023-02-22T04:41:18;201.38;;;83.70;;
24644;SDS011;12780;45.502;9.146;2023-02-22T04:43:44;198.65;;;82.97;;
24644;SDS011;12780;45.502;9.146;2023-02-22T04:46:10;204.38;;;84.65;;
24644;SDS011;12780;45.502;9.146;2023-02-22T04:48:36;208.10;;;85.32;;
24644;SDS011;12780;45.502;9.146;2023-02-22T04:51:02;206.23;;;84.15;;
24644;SDS011;12780;45.502;9.146;2023-02-22T04:53:28;212.48;;;85.88;;
24644;SDS011;12780;45.502;9.146;2023-02-22T04:55:54;212.48;;;85.10;;
24644;SDS011;12780;45.502;9.146;2023-02-22T04:58:20;214.70;;;87.93;;
24644;SDS011;12780;45.502;9.146;2023-02-22T05:00:45;208.30;;;86.15;;
24644;SDS011;12780;45.502;9.146;2023-02-22T05:03:11;218.73;;;87.32;;
24644;SDS011;12780;45.502;9.146;2023-02-22T05:05:37;209.68;;;87.13;;
24644;SDS011;12780;45.502;9.146;2023-02-22T05:08:02;204.25;;;85.95;;
24644;SDS011;12780;45.502;9.146;2023-02-22T05:10:28;208.90;;;87.25;;
24644;SDS011;12780;45.502;9.146;2023-02-22T05:12:55;215.82;;;85.63;;
24644;SDS011;12780;45.502;9.146;2023-02-22T05:15:21;213.43;;;88.80;;
24644;SDS011;12780;45.502;9.146;2023-02-22T05:17:48;223.50;;;88.03;;
24644;SDS011;12780;45.502;9.146;2023-02-22T05:20:25;224.90;;;89.65;;
24644;SDS011;12780;45.502;9.146;2023-02-22T05:22:53;231.68;;;89.78;;
24644;SDS011;12780;45.502;9.146;2023-02-22T05:25:19;226.82;;;90.57;;
24644;SDS011;12780;45.502;9.146;2023-02-22T05:28:04;233.50;;;92.30;;
24644;SDS011;12780;45.502;9.146;2023-02-22T05:30:38;221.43;;;89.97;;
24644;SDS011;12780;45.502;9.146;2023-02-22T05:33:04;221.77;;;89.25;;
24644;SDS011;12780;45.502;9.146;2023-02-22T05:35:29;219.05;;;87.68;;
24644;SDS011;12780;45.502;9.146;2023-02-22T05:37:55;222.15;;;89.70;;
24644;SDS011;12780;45.502;9.146;2023-02-22T05:40:22;225.18;;;89.03;;
24644;SDS011;12780;45.502;9.146;2023-02-22T05:42:49;233.15;;;89.45;;
24644;SDS011;12780;45.502;9.146;2023-02-22T05:45:16;224.93;;;90.82;;
24644;SDS011;12780;45.502;9.146;2023-02-22T05:47:44;224.88;;;87.97;;
24644;SDS011;12780;45.502;9.146;2023-02-22T05:50:10;223.20;;;89.03;;
24644;SDS011;12780;45.502;9.146;2023-02-22T05:52:36;215.82;;;87.85;;
24644;SDS011;12780;45.502;9.146;2023-02-22T05:55:02;227.35;;;89.30;;
24644;SDS011;12780;45.502;9.146;2023-02-22T05:57:29;217.80;;;89.60;;
24644;SDS011;12780;45.502;9.146;2023-02-22T05:59:55;220.02;;;88.22;;
24644;SDS011;12780;45.502;9.146;2023-02-22T06:02:21;230.57;;;91.93;;
24644;SDS011;12780;45.502;9.146;2023-02-22T06:04:47;218.07;;;89.28;;
24644;SDS011;12780;45.502;9.146;2023-02-22T06:07:12;225.23;;;91.25;;
24644;SDS011;12780;45.502;9.146;2023-02-22T06:09:39;229.50;;;90.90;;
24644;SDS011;12780;45.502;9.146;2023-02-22T06:12:05;222.18;;;90.28;;
24644;SDS011;12780;45.502;9.146;2023-02-22T06:14:32;229.75;;;90.80;;
24644;SDS011;12780;45.502;9.146;2023-02-22T06:16:57;224.52;;;90.68;;
24644;SDS011;12780;45.502;9.146;2023-02-22T06:19:25;225.65;;;89.65;;
24644;SDS011;12780;45.502;9.146;2023-02-22T06:21:51;235.23;;;91.75;;
24644;SDS011;12780;45.502;9.146;2023-02-22T06:24:21;238.75;;;90.28;;
24644;SDS011;12780;45.502;9.146;2023-02-22T06:26:53;230.32;;;91.70;;
24644;SDS011;12780;45.502;9.146;2023-02-22T06:29:20;234.20;;;91.65;;
24644;SDS011;12780;45.502;9.146;2023-02-22T06:31:47;230.05;;;92.05;;
24644;SDS011;12780;45.502;9.146;2023-02-22T06:34:13;223.88;;;91.30;;
24644;SDS011;12780;45.502;9.146;2023-02-22T06:36:38;227.05;;;89.90;;
24644;SDS011;12780;45.502;9.146;2023-02-22T06:39:04;225.23;;;90.07;;
24644;SDS011;12780;45.502;9.146;2023-02-22T06:41:29;246.25;;;90.70;;
24644;SDS011;12780;45.502;9.146;2023-02-22T06:43:55;234.75;;;90.68;;
24644;SDS011;12780;45.502;9.146;2023-02-22T06:46:20;225.68;;;89.43;;
24644;SDS011;12780;45.502;9.146;2023-02-22T06:48:46;230.55;;;90.60;;
24644;SDS011;12780;45.502;9.146;2023-02-22T06:51:12;233.32;;;89.50;;
24644;SDS011;12780;45.502;9.146;2023-02-22T06:53:37;230.48;;;89.40;;
24644;SDS011;12780;45.502;9.146;2023-02-22T06:56:03;235.80;;;89.68;;
24644;SDS011;12780;45.502;9.146;2023-02-22T06:58:29;224.70;;;88.65;;
24644;SDS011;12780;45.502;9.146;2023-02-22T07:00:54;224.85;;;90.53;;
24644;SDS011;12780;45.502;9.146;2023-02-22T07:03:20;234.93;;;89.43;;
24644;SDS011;12780;45.502;9.146;2023-02-22T07:05:45;230.82;;;90.32;;
24644;SDS011;12780;45.502;9.146;2023-02-22T07:08:11;232.95;;;91.00;;
24644;SDS011;12780;45.502;9.146;2023-02-22T07:10:37;243.73;;;90.38;;
24644;SDS011;12780;45.502;9.146;2023-02-22T07:13:04;234.27;;;89.63;;
24644;SDS011;12780;45.502;9.146;2023-02-22T07:15:32;247.35;;;93.22;;
24644;SDS011;12780;45.502;9.146;2023-02-22T07:17:59;228.93;;;85.95;;
24644;SDS011;12780;45.502;9.146;2023-02-22T07:20:25;224.63;;;91.10;;
24644;SDS011;12780;45.502;9.146;2023-02-22T07:22:52;221.55;;;87.15;;
24644;SDS011;12780;45.502;9.146;2023-02-22T07:25:18;224.13;;;89.28;;
24644;SDS011;12780;45.502;9.146;2023-02-22T07:27:44;233.85;;;89.13;;
24644;SDS011;12780;45.502;9.146;2023-02-22T07:30:14;222.88;;;89.80;;
24644;SDS011;12780;45.502;9.146;2023-02-22T07:32:43;215.45;;;86.82;;
24644;SDS011;12780;45.502;9.146;2023-02-22T07:35:12;228.00;;;88.75;;
24644;SDS011;12780;45.502;9.146;2023-02-22T07:37:42;227.43;;;89.53;;
24644;SDS011;12780;45.502;9.146;2023-02-22T07:40:08;218.85;;;88.05;;
24644;SDS011;12780;45.502;9.146;2023-02-22T07:42:49;227.27;;;91.13;;
24644;SDS011;12780;45.502;9.146;2023-02-22T07:45:24;229.88;;;88.55;;
24644;SDS011;12780;45.502;9.146;2023-02-22T07:47:51;219.68;;;86.45;;
24644;SDS011;12780;45.502;9.146;2023-02-22T07:50:17;229.13;;;87.90;;
24644;SDS011;12780;45.502;9.146;2023-02-22T07:52:44;223.60;;;87.15;;
24644;SDS011;12780;45.502;9.146;2023-02-22T07:55:15;242.63;;;91.13;;
24644;SDS011;12780;45.502;9.146;2023-02-22T07:57:44;233.70;;;87.78;;
24644;SDS011;12780;45.502;9.146;2023-02-22T08:00:11;226.20;;;88.53;;
24644;SDS011;12780;45.502;9.146;2023-02-22T08:02:38;232.70;;;87.63;;
24644;SDS011;12780;45.502;9.146;2023-02-22T08:05:05;219.32;;;86.25;;
24644;SDS011;12780;45.502;9.146;2023-02-22T08:07:32;234.32;;;91.47;;
24644;SDS011;12780;45.502;9.146;2023-02-22T08:09:59;227.73;;;87.00;;
24644;SDS011;12780;45.502;9.146;2023-02-22T08:12:24;229.63;;;88.15;;
24644;SDS011;12780;45.502;9.146;2023-02-22T08:14:50;237.10;;;89.78;;
24644;SDS011;12780;45.502;9.146;2023-02-22T08:17:15;232.48;;;90.40;;
24644;SDS011;12780;45.502;9.146;2023-02-22T08:19:41;234.50;;;89.18;;
24644;SDS011;12780;45.502;9.146;2023-02-22T08:22:07;232.35;;;88.38;;
24644;SDS011;12780;45.502;9.146;2023-02-22T08:24:32;220.13;;;86.97;;
24644;SDS011;12780;45.502;9.146;2023-02-22T08:26:58;230.05;;;87.72;;
24644;SDS011;12780;45.502;9.146;2023-02-22T08:29:23;227.75;;;88.90;;
24644;SDS011;12780;45.502;9.146;2023-02-22T08:31:57;220.75;;;86.97;;
24644;SDS011;12780;45.502;9.146;2023-02-22T08:34:23;222.93;;;88.60;;
24644;SDS011;12780;45.502;9.146;2023-02-22T08:36:49;224.80;;;89.78;;
24644;SDS011;12780;45.502;9.146;2023-02-22T08:39:14;218.95;;;85.68;;
24644;SDS011;12780;45.502;9.146;2023-02-22T08:41:40;229.38;;;87.60;;
24644;SDS011;12780;45.502;9.146;2023-02-22T08:44:05;229.50;;;89.00;;
24644;SDS011;12780;45.502;9.146;2023-02-22T08:46:31;243.13;;;89.43;;
24644;SDS011;12780;45.502;9.146;2023-02-22T08:48:57;229.27;;;88.05;;
24644;SDS011;12780;45.502;9.146;2023-02-22T08:51:22;231.07;;;89.15;;
24644;SDS011;12780;45.502;9.146;2023-02-22T08:53:49;224.00;;;88.32;;
24644;SDS011;12780;45.502;9.146;2023-02-22T08:56:15;229.55;;;89.75;;
24644;SDS011;12780;45.502;9.146;2023-02-22T08:58:40;211.95;;;86.15;;
24644;SDS011;12780;45.502;9.146;2023-02-22T09:01:06;226.65;;;87.35;;
24644;SDS011;12780;45.502;9.146;2023-02-22T09:03:31;220.23;;;87.82;;
24644;SDS011;12780;45.502;9.146;2023-02-22T09:05:57;212.75;;;83.53;;
24644;SDS011;12780;45.502;9.146;2023-02-22T09:08:23;208.23;;;85.50;;
24644;SDS011;12780;45.502;9.146;2023-02-22T09:10:49;211.82;;;85.47;;
24644;SDS011;12780;45.502;9.146;2023-02-22T09:13:15;220.60;;;86.82;;
24644;SDS011;12780;45.502;9.146;2023-02-22T09:15:40;216.43;;;87.82;;
24644;SDS011;12780;45.502;9.146;2023-02-22T09:18:07;207.85;;;86.63;;
24644;SDS011;12780;45.502;9.146;2023-02-22T09:20:34;209.68;;;84.78;;
24644;SDS011;12780;45.502;9.146;2023-02-22T09:23:01;208.27;;;81.35;;
24644;SDS011;12780;45.502;9.146;2023-02-22T09:25:28;202.90;;;82.72;;
24644;SDS011;12780;45.502;9.146;2023-02-22T09:27:54;220.55;;;83.35;;
24644;SDS011;12780;45.502;9.146;2023-02-22T09:30:31;205.73;;;85.80;;
24644;SDS011;12780;45.502;9.146;2023-02-22T09:32:59;195.27;;;81.55;;
24644;SDS011;12780;45.502;9.146;2023-02-22T09:35:30;213.77;;;86.78;;
24644;SDS011;12780;45.502;9.146;2023-02-22T09:38:00;204.95;;;82.68;;
24644;SDS011;12780;45.502;9.146;2023-02-22T09:40:27;205.20;;;84.85;;
24644;SDS011;12780;45.502;9.146;2023-02-22T09:45:43;206.85;;;84.85;;
24644;SDS011;12780;45.502;9.146;2023-02-22T09:48:22;214.02;;;83.93;;
24644;SDS011;12780;45.502;9.146;2023-02-22T09:50:50;207.13;;;83.93;;
24644;SDS011;12780;45.502;9.146;2023-02-22T09:53:44;208.52;;;85.53;;
24644;SDS011;12780;45.502;9.146;2023-02-22T09:56:10;204.07;;;85.22;;
24644;SDS011;12780;45.502;9.146;2023-02-22T09:58:39;192.68;;;82.90;;
24644;SDS011;12780;45.502;9.146;2023-02-22T10:03:53;211.68;;;83.97;;
24644;SDS011;12780;45.502;9.146;2023-02-22T10:06:25;199.70;;;82.90;;
24644;SDS011;12780;45.502;9.146;2023-02-22T10:08:52;217.95;;;86.20;;
24644;SDS011;12780;45.502;9.146;2023-02-22T10:11:30;197.77;;;82.20;;
24644;SDS011;12780;45.502;9.146;2023-02-22T10:16:33;211.07;;;83.25;;
24644;SDS011;12780;45.502;9.146;2023-02-22T10:27:18;210.55;;;86.05;;
24644;SDS011;12780;45.502;9.146;2023-02-22T10:32:35;200.07;;;83.07;;
24644;SDS011;12780;45.502;9.146;2023-02-22T10:35:15;208.25;;;83.88;;
24644;SDS011;12780;45.502;9.146;2023-02-22T10:37:45;192.32;;;80.38;;
24644;SDS011;12780;45.502;9.146;2023-02-22T10:40:18;203.20;;;81.93;;
24644;SDS011;12780;45.502;9.146;2023-02-22T10:42:47;188.02;;;78.78;;
24644;SDS011;12780;45.502;9.146;2023-02-22T10:45:32;198.63;;;79.30;;
24644;SDS011;12780;45.502;9.146;2023-02-22T10:48:11;188.25;;;80.75;;
24644;SDS011;12780;45.502;9.146;2023-02-22T10:50:41;190.43;;;77.75;;
24644;SDS011;12780;45.502;9.146;2023-02-22T10:53:08;188.00;;;78.55;;
24644;SDS011;12780;45.502;9.146;2023-02-22T10:55:34;186.23;;;79.45;;
24644;SDS011;12780;45.502;9.146;2023-02-22T10:58:05;174.57;;;75.78;;
24644;SDS011;12780;45.502;9.146;2023-02-22T11:00:33;173.90;;;75.40;;
24644;SDS011;12780;45.502;9.146;2023-02-22T11:05:41;184.65;;;74.13;;
24644;SDS011;12780;45.502;9.146;2023-02-22T11:10:45;175.30;;;76.15;;
24644;SDS011;12780;45.502;9.146;2023-02-22T11:13:22;177.75;;;76.05;;
24644;SDS011;12780;45.502;9.146;2023-02-22T11:15:58;177.07;;;76.70;;
24644;SDS011;12780;45.502;9.146;2023-02-22T11:18:31;171.80;;;75.20;;
24644;SDS011;12780;45.502;9.146;2023-02-22T11:21:03;172.73;;;75.15;;
24644;SDS011;12780;45.502;9.146;2023-02-22T11:23:31;164.25;;;70.88;;
24644;SDS011;12780;45.502;9.146;2023-02-22T11:26:09;154.20;;;71.63;;
24644;SDS011;12780;45.502;9.146;2023-02-22T11:28:43;161.52;;;71.85;;
24644;SDS011;12780;45.502;9.146;2023-02-22T11:31:16;174.95;;;73.03;;
24644;SDS011;12780;45.502;9.146;2023-02-22T11:36:51;171.02;;;73.90;;
24644;SDS011;12780;45.502;9.146;2023-02-22T11:39:24;183.05;;;78.20;;
24644;SDS011;12780;45.502;9.146;2023-02-22T11:41:58;186.85;;;82.78;;
24644;SDS011;12780;45.502;9.146;2023-02-22T11:45:08;183.43;;;78.00;;
24644;SDS011;12780;45.502;9.146;2023-02-22T11:47:46;183.70;;;78.90;;
24644;SDS011;12780;45.502;9.146;2023-02-22T11:53:00;188.00;;;79.30;;
24644;SDS011;12780;45.502;9.146;2023-02-22T12:03:39;189.83;;;80.27;;
24644;SDS011;12780;45.502;9.146;2023-02-22T12:06:23;188.07;;;79.80;;
24644;SDS011;12780;45.502;9.146;2023-02-22T12:09:09;187.60;;;79.78;;
24644;SDS011;12780;45.502;9.146;2023-02-22T12:14:31;141.93;;;61.28;;
24644;SDS011;12780;45.502;9.146;2023-02-22T12:20:44;144.80;;;61.38;;
24644;SDS011;12780;45.502;9.146;2023-02-22T12:26:06;163.75;;;67.25;;
24644;SDS011;12780;45.502;9.146;2023-02-22T12:28:36;147.68;;;62.20;;
24644;SDS011;12780;45.502;9.146;2023-02-22T12:36:40;137.25;;;56.95;;
24644;SDS011;12780;45.502;9.146;2023-02-22T12:41:49;130.75;;;57.38;;
24644;SDS011;12780;45.502;9.146;2023-02-22T12:44:20;133.85;;;58.08;;
24644;SDS011;12780;45.502;9.146;2023-02-22T12:46:55;116.20;;;53.20;;
24644;SDS011;12780;45.502;9.146;2023-02-22T12:54:47;133.75;;;57.85;;
24644;SDS011;12780;45.502;9.146;2023-02-22T12:57:37;134.25;;;59.75;;
24644;SDS011;12780;45.502;9.146;2023-02-22T13:02:42;124.22;;;56.85;;
24644;SDS011;12780;45.502;9.146;2023-02-22T13:05:20;130.93;;;56.35;;
24644;SDS011;12780;45.502;9.146;2023-02-22T13:07:54;118.90;;;50.35;;
24644;SDS011;12780;45.502;9.146;2023-02-22T13:16:02;97.65;;;43.10;;
24644;SDS011;12780;45.502;9.146;2023-02-22T13:18:50;98.22;;;44.45;;
24644;SDS011;12780;45.502;9.146;2023-02-22T13:21:30;115.28;;;49.60;;
24644;SDS011;12780;45.502;9.146;2023-02-22T13:24:15;117.68;;;48.97;;
24644;SDS011;12780;45.502;9.146;2023-02-22T13:26:56;118.05;;;52.10;;
24644;SDS011;12780;45.502;9.146;2023-02-22T13:29:29;109.50;;;49.50;;
24644;SDS011;12780;45.502;9.146;2023-02-22T13:40:52;88.50;;;39.55;;
24644;SDS011;12780;45.502;9.146;2023-02-22T13:52:02;81.80;;;38.85;;
24644;SDS011;12780;45.502;9.146;2023-02-22T13:54:37;87.88;;;40.22;;
24644;SDS011;12780;45.502;9.146;2023-02-22T13:57:22;79.20;;;33.22;;
24644;SDS011;12780;45.502;9.146;2023-02-22T14:13:18;50.60;;;19.80;;
24644;SDS011;12780;45.502;9.146;2023-02-22T14:18:35;64.13;;;28.00;;
24644;SDS011;12780;45.502;9.146;2023-02-22T14:34:17;48.20;;;23.20;;
24644;SDS011;12780;45.502;9.146;2023-02-22T14:36:50;48.25;;;23.10;;
24644;SDS011;12780;45.502;9.146;2023-02-22T14:39:58;46.60;;;23.00;;
24644;SDS011;12780;45.502;9.146;2023-02-22T14:42:38;46.97;;;22.55;;
24644;SDS011;12780;45.502;9.146;2023-02-22T14:50:27;50.63;;;23.38;;
24644;SDS011;12780;45.502;9.146;2023-02-22T14:53:35;52.42;;;24.55;;
24644;SDS011;12780;45.502;9.146;2023-02-22T14:56:08;55.33;;;24.38;;
24644;SDS011;12780;45.502;9.146;2023-02-22T14:58:42;59.03;;;26.08;;
24644;SDS011;12780;45.502;9.146;2023-02-22T15:01:36;57.92;;;26.30;;
24644;SDS011;12780;45.502;9.146;2023-02-22T15:06:51;51.70;;;23.52;;
24644;SDS011;12780;45.502;9.146;2023-02-22T15:09:20;52.88;;;24.48;;
24644;SDS011;12780;45.502;9.146;2023-02-22T15:14:35;38.65;;;19.85;;
24644;SDS011;12780;45.502;9.146;2023-02-22T15:17:08;39.53;;;19.13;;
24644;SDS011;12780;45.502;9.146;2023-02-22T15:19:37;46.80;;;22.27;;
24644;SDS011;12780;45.502;9.146;2023-02-22T15:22:05;45.63;;;20.60;;
24644;SDS011;12780;45.502;9.146;2023-02-22T15:25:24;41.75;;;20.95;;
24644;SDS011;12780;45.502;9.146;2023-02-22T15:27:47;52.83;;;23.88;;
24644;SDS011;12780;45.502;9.146;2023-02-22T15:30:18;54.50;;;25.73;;
24644;SDS011;12780;45.502;9.146;2023-02-22T15:32:47;54.63;;;27.25;;
24644;SDS011;12780;45.502;9.146;2023-02-22T15:37:59;75.28;;;33.47;;
24644;SDS011;12780;45.502;9.146;2023-02-22T15:40:30;80.10;;;34.33;;
24644;SDS011;12780;45.502;9.146;2023-02-22T15:43:03;79.53;;;35.00;;
24644;SDS011;12780;45.502;9.146;2023-02-22T15:45:34;74.57;;;34.20;;
24644;SDS011;12780;45.502;9.146;2023-02-22T15:48:06;79.27;;;34.50;;
24644;SDS011;12780;45.502;9.146;2023-02-22T15:50:36;69.45;;;33.33;;
24644;SDS011;12780;45.502;9.146;2023-02-22T15:53:06;71.15;;;33.65;;
24644;SDS011;12780;45.502;9.146;2023-02-22T15:55:46;74.07;;;33.50;;
24644;SDS011;12780;45.502;9.146;2023-02-22T15:58:20;71.70;;;34.72;;
24644;SDS011;12780;45.502;9.146;2023-02-22T16:01:10;77.30;;;34.80;;
24644;SDS011;12780;45.502;9.146;2023-02-22T16:03:41;75.90;;;34.58;;
24644;SDS011;12780;45.502;9.146;2023-02-22T16:08:48;98.22;;;42.67;;
24644;SDS011;12780;45.502;9.146;2023-02-22T16:11:20;81.90;;;35.63;;
24644;SDS011;12780;45.502;9.146;2023-02-22T16:13:59;75.22;;;34.65;;
24644;SDS011;12780;45.502;9.146;2023-02-22T16:16:47;78.88;;;35.60;;
24644;SDS011;12780;45.502;9.146;2023-02-22T16:21:56;84.72;;;36.17;;
24644;SDS011;12780;45.502;9.146;2023-02-22T16:24:34;77.60;;;36.35;;
24644;SDS011;12780;45.502;9.146;2023-02-22T16:27:04;81.72;;;36.50;;
24644;SDS011;12780;45.502;9.146;2023-02-22T16:29:40;77.78;;;34.63;;
24644;SDS011;12780;45.502;9.146;2023-02-22T16:32:06;76.85;;;35.67;;
24644;SDS011;12780;45.502;9.146;2023-02-22T16:34:31;80.07;;;35.85;;
24644;SDS011;12780;45.502;9.146;2023-02-22T16:36:57;71.10;;;33.88;;
24644;SDS011;12780;45.502;9.146;2023-02-22T16:39:29;78.00;;;35.33;;
24644;SDS011;12780;45.502;9.146;2023-02-22T16:42:00;74.72;;;35.63;;
24644;SDS011;12780;45.502;9.146;2023-02-22T16:44:27;73.78;;;34.67;;
24644;SDS011;12780;45.502;9.146;2023-02-22T16:46:54;71.38;;;31.73;;
24644;SDS011;12780;45.502;9.146;2023-02-22T16:49:21;70.53;;;32.58;;
24644;SDS011;12780;45.502;9.146;2023-02-22T16:52:21;70.15;;;31.40;;
24644;SDS011;12780;45.502;9.146;2023-02-22T16:54:40;68.60;;;32.85;;
24644;SDS011;12780;45.502;9.146;2023-02-22T16:57:13;70.90;;;32.97;;
24644;SDS011;12780;45.502;9.146;2023-02-22T16:59:43;70.38;;;32.47;;
24644;SDS011;12780;45.502;9.146;2023-02-22T17:02:12;71.03;;;32.95;;
24644;SDS011;12780;45.502;9.146;2023-02-22T17:04:39;76.30;;;33.85;;
24644;SDS011;12780;45.502;9.146;2023-02-22T17:07:05;77.78;;;33.13;;
24644;SDS011;12780;45.502;9.146;2023-02-22T17:09:33;73.95;;;31.92;;
24644;SDS011;12780;45.502;9.146;2023-02-22T17:11:59;72.93;;;32.33;;
24644;SDS011;12780;45.502;9.146;2023-02-22T17:14:31;70.55;;;32.40;;
24644;SDS011;12780;45.502;9.146;2023-02-22T17:16:59;74.90;;;33.63;;
24644;SDS011;12780;45.502;9.146;2023-02-22T17:19:24;71.53;;;31.30;;
24644;SDS011;12780;45.502;9.146;2023-02-22T17:21:50;80.35;;;34.75;;
24644;SDS011;12780;45.502;9.146;2023-02-22T17:24:17;73.40;;;33.30;;
24644;SDS011;12780;45.502;9.146;2023-02-22T17:26:44;80.00;;;35.15;;